createdAt,value
2018-10-03T00:00:19.530Z,1.2
2018-10-03T00:02:19.223Z,1.2
2018-10-03T00:04:19.033Z,1.6
2018-10-03T00:06:19.131Z,1.2
2018-10-03T00:08:18.917Z,1.4
2018-10-03T00:10:19.183Z,1.6
2018-10-03T00:12:18.992Z,1.8
2018-10-03T00:14:18.772Z,0.8
2018-10-03T00:16:18.985Z,1.5
2018-10-03T00:18:18.829Z,0.7
2018-10-03T00:20:18.626Z,1.5
2018-10-03T00:22:19.391Z,1.9
2018-10-03T00:24:19.194Z,1.9
2018-10-03T00:26:19.273Z,1.8
2018-10-03T00:28:19.060Z,1.8
2018-10-03T00:30:18.868Z,1.1
2018-10-03T00:32:18.644Z,1.4
2018-10-03T00:34:19.426Z,2.5
2018-10-03T00:36:19.496Z,1.2
2018-10-03T00:38:19.273Z,1.6
2018-10-03T00:40:18.565Z,1.3
2018-10-03T00:42:19.327Z,1.5
2018-10-03T00:44:19.094Z,1.9
2018-10-03T00:46:18.532Z,0.8
2018-10-03T00:48:19.304Z,0.7
2018-10-03T00:50:19.077Z,1.6
2018-10-03T00:52:18.883Z,1.3
2018-10-03T00:54:18.641Z,1.5
2018-10-03T00:56:19.070Z,1
2018-10-03T00:58:18.857Z,0.9
2018-10-03T01:00:18.634Z,1.9
2018-10-03T01:02:19.403Z,1.1
2018-10-03T01:04:19.214Z,1
2018-10-03T01:06:18.769Z,1.9
2018-10-03T01:08:18.544Z,1
2018-10-03T01:10:18.809Z,1.5
2018-10-03T01:12:18.589Z,1.4
2018-10-03T01:14:19.371Z,1.1
2018-10-03T01:16:18.580Z,1.2
2018-10-03T01:18:19.434Z,0.7
2018-10-03T01:20:19.205Z,1.1
2018-10-03T01:22:18.973Z,1
2018-10-03T01:24:18.768Z,1
2018-10-03T01:26:18.906Z,2.3
2018-10-03T01:28:18.695Z,1.8
2018-10-03T01:30:19.494Z,0.7
2018-10-03T01:32:19.275Z,1
2018-10-03T01:34:19.032Z,1.1
2018-10-03T01:36:19.094Z,1.4
2018-10-03T01:38:18.911Z,1.6
2018-10-03T01:40:19.450Z,1
2018-10-03T01:42:18.813Z,2
2018-10-03T01:44:18.612Z,1.5
2018-10-03T01:46:18.760Z,1.8
2018-10-03T01:48:18.538Z,1.6
2018-10-03T01:50:19.322Z,1.3
2018-10-03T01:52:19.084Z,1.1
2018-10-03T01:54:18.852Z,1.8
2018-10-03T01:56:18.984Z,1.6
2018-10-03T01:58:18.754Z,1.7
2018-10-03T02:00:18.526Z,1.3
2018-10-03T02:02:19.293Z,1.5
2018-10-03T02:04:19.064Z,1.2
2018-10-03T02:06:18.730Z,1
2018-10-03T02:08:19.514Z,1.7
2018-10-03T02:10:18.833Z,1.8
2018-10-03T02:12:18.611Z,1.8
2018-10-03T02:14:19.420Z,1.2
2018-10-03T02:16:18.817Z,1.5
2018-10-03T02:18:18.685Z,1.4
2018-10-03T02:20:19.453Z,1.1
2018-10-03T02:22:19.223Z,1.2
2018-10-03T02:24:19.008Z,1.7
2018-10-03T02:26:18.575Z,2.1
2018-10-03T02:28:19.379Z,1.9
2018-10-03T02:30:19.224Z,1.6
2018-10-03T02:32:19.007Z,1.1
2018-10-03T02:34:18.778Z,1.3
2018-10-03T02:36:19.052Z,1.6
2018-10-03T02:38:18.824Z,1.4
2018-10-03T02:40:19.095Z,1.6
2018-10-03T02:42:18.877Z,2
2018-10-03T02:44:18.679Z,1.9
2018-10-03T02:46:18.768Z,1.8
2018-10-03T02:48:18.564Z,1.9
2018-10-03T02:50:19.355Z,1.5
2018-10-03T02:52:19.129Z,1.6
2018-10-03T02:54:18.884Z,0.7
2018-10-03T02:56:18.666Z,1.1
2018-10-03T02:58:19.439Z,1.9
2018-10-03T03:00:19.247Z,1.3
2018-10-03T03:02:19.041Z,1.6
2018-10-03T03:04:18.836Z,1.1
2018-10-03T03:06:19.481Z,1.6
2018-10-03T03:08:19.319Z,1.6
2018-10-03T03:10:18.639Z,1.9
2018-10-03T03:12:19.419Z,1.3
2018-10-03T03:14:19.203Z,1.8
2018-10-03T03:16:19.446Z,1.4
2018-10-03T03:18:19.332Z,1.3
2018-10-03T03:20:19.101Z,0.5
2018-10-03T03:22:18.895Z,2.2
2018-10-03T03:24:18.689Z,0.8
2018-10-03T03:26:19.248Z,2.3
2018-10-03T03:28:19.036Z,1
2018-10-03T03:30:18.797Z,1.2
2018-10-03T03:32:18.607Z,1.1
2018-10-03T03:34:19.392Z,1.3
2018-10-03T03:36:18.610Z,1.5
2018-10-03T03:38:19.378Z,0.9
2018-10-03T03:40:18.635Z,1.2
2018-10-03T03:42:19.411Z,1.3
2018-10-03T03:44:19.190Z,1.2
2018-10-03T03:46:18.757Z,1.2
2018-10-03T03:48:18.552Z,1.1
2018-10-03T03:50:19.353Z,1.3
2018-10-03T03:52:19.106Z,1.1
2018-10-03T03:54:18.906Z,1.7
2018-10-03T03:56:19.499Z,1.3
2018-10-03T03:58:19.330Z,1.8
2018-10-03T04:00:19.123Z,1.5
2018-10-03T04:02:18.925Z,0.7
2018-10-03T04:04:18.709Z,1.4
2018-10-03T04:06:18.838Z,1
2018-10-03T04:08:18.614Z,1.6
2018-10-03T04:10:19.005Z,1.4
2018-10-03T04:12:18.780Z,1.6
2018-10-03T04:14:18.565Z,1.1
2018-10-03T04:16:19.011Z,1.7
2018-10-03T04:18:18.852Z,0.8
2018-10-03T04:20:18.704Z,1.3
2018-10-03T04:22:19.485Z,1.8
2018-10-03T04:24:19.290Z,1.4
2018-10-03T04:26:18.891Z,0.8
2018-10-03T04:28:18.707Z,1.3
2018-10-03T04:30:19.478Z,1.3
2018-10-03T04:32:19.272Z,1.5
2018-10-03T04:34:19.072Z,2.1
2018-10-03T04:36:19.270Z,1.6
2018-10-03T04:38:19.042Z,0.8
2018-10-03T04:40:19.377Z,1.7
2018-10-03T04:42:19.180Z,1.8
2018-10-03T04:44:19.265Z,0.9
2018-10-03T04:46:18.803Z,1.2
2018-10-03T04:48:18.576Z,2
2018-10-03T04:50:19.366Z,1.3
2018-10-03T04:52:18.987Z,1
2018-10-03T04:54:18.736Z,2
2018-10-03T04:56:18.613Z,0.8
2018-10-03T04:58:19.366Z,1.1
2018-10-03T05:00:19.134Z,1.7
2018-10-03T05:02:18.916Z,1.4
2018-10-03T05:04:18.696Z,0.7
2018-10-03T05:06:18.999Z,1.7
2018-10-03T05:08:18.770Z,0.9
2018-10-03T05:10:19.048Z,1.5
2018-10-03T05:12:18.827Z,1.3
2018-10-03T05:14:18.606Z,1.7
2018-10-03T05:16:18.638Z,1.3
2018-10-03T05:18:19.478Z,1.4
2018-10-03T05:20:19.280Z,1.4
2018-10-03T05:22:19.032Z,1.4
2018-10-03T05:24:18.776Z,1.5
2018-10-03T05:26:19.299Z,1.6
2018-10-03T05:28:19.110Z,1.4
2018-10-03T05:30:18.913Z,1.3
2018-10-03T05:32:18.710Z,1.1
2018-10-03T05:34:19.486Z,1.6
2018-10-03T05:36:19.183Z,1.2
2018-10-03T05:38:18.944Z,1.6
2018-10-03T05:40:19.203Z,1.8
2018-10-03T05:42:18.957Z,1.7
2018-10-03T05:44:18.716Z,1.6
2018-10-03T05:46:19.235Z,1.2
2018-10-03T05:48:19.038Z,1.7
2018-10-03T05:50:18.989Z,1.7
2018-10-03T05:52:18.749Z,1.8
2018-10-03T05:54:18.539Z,1.5
2018-10-03T05:56:19.143Z,2.1
2018-10-03T05:58:18.943Z,1.6
2018-10-03T06:00:18.877Z,2.2
2018-10-03T06:02:19.389Z,1.3
2018-10-03T06:04:19.185Z,1.3
2018-10-03T06:06:18.859Z,1.1
2018-10-03T06:08:18.663Z,1.6
2018-10-03T06:10:18.877Z,1.5
2018-10-03T06:12:18.665Z,1.9
2018-10-03T06:14:18.618Z,1.4
2018-10-03T06:16:18.708Z,1.3
2018-10-03T06:18:18.585Z,2
2018-10-03T06:20:19.391Z,1.4
2018-10-03T06:22:19.153Z,2
2018-10-03T06:24:18.908Z,0.9
2018-10-03T06:26:19.138Z,1.9
2018-10-03T06:28:18.925Z,1.3
2018-10-03T06:30:18.905Z,1.4
2018-10-03T06:32:18.683Z,1.9
2018-10-03T06:34:19.442Z,1.4
2018-10-03T06:36:18.944Z,0.5
2018-10-03T06:38:18.761Z,1.2
2018-10-03T06:40:19.073Z,1.2
2018-10-03T06:42:18.906Z,0.9
2018-10-03T06:44:18.694Z,1.7
2018-10-03T06:46:18.784Z,1.3
2018-10-03T06:48:18.543Z,1.5
2018-10-03T06:50:19.371Z,0.9
2018-10-03T06:52:18.544Z,1.7
2018-10-03T06:54:19.308Z,1
2018-10-03T06:56:19.446Z,2.3
2018-10-03T06:58:19.221Z,1.5
2018-10-03T07:00:19.008Z,2.4
2018-10-03T07:02:18.797Z,1.3
2018-10-03T07:04:18.591Z,2.3
2018-10-03T07:06:19.133Z,1.5
2018-10-03T07:08:18.900Z,2.4
2018-10-03T07:10:19.175Z,1.2
2018-10-03T07:12:18.974Z,1.3
2018-10-03T07:14:18.757Z,1.1
2018-10-03T07:16:19.411Z,1.5
2018-10-03T07:18:19.253Z,1.6
2018-10-03T07:20:19.190Z,2.2
2018-10-03T07:22:19.263Z,1.9
2018-10-03T07:24:19.020Z,1.1
2018-10-03T07:26:18.703Z,1.2
2018-10-03T07:28:18.657Z,1.6
2018-10-03T07:30:19.512Z,1.2
2018-10-03T07:32:18.958Z,1.2
2018-10-03T07:34:18.707Z,1.5
2018-10-03T07:36:19.311Z,1
2018-10-03T07:38:19.066Z,1
2018-10-03T07:40:19.350Z,1.3
2018-10-03T07:42:18.949Z,1
2018-10-03T07:44:18.730Z,3.3
2018-10-03T07:46:18.820Z,1.6
2018-10-03T07:48:18.585Z,1.2
2018-10-03T07:50:19.432Z,1.7
2018-10-03T07:52:19.236Z,1.1
2018-10-03T07:54:19.010Z,0.9
2018-10-03T07:56:19.282Z,1
2018-10-03T07:58:19.221Z,1.1
2018-10-03T08:00:19.038Z,1.3
2018-10-03T08:02:18.808Z,0.7
2018-10-03T08:04:18.590Z,1.7
2018-10-03T08:06:18.883Z,1.5
2018-10-03T08:08:18.678Z,1.3
2018-10-03T08:10:18.907Z,0.7
2018-10-03T08:12:18.687Z,1.5
2018-10-03T08:14:19.468Z,1.1
2018-10-03T08:16:19.031Z,0.8
2018-10-03T08:18:18.871Z,0.9
2018-10-03T08:20:18.660Z,0.8
2018-10-03T08:22:19.440Z,0.7
2018-10-03T08:24:19.248Z,0.5
2018-10-03T08:26:18.790Z,1.6
2018-10-03T08:28:18.560Z,0.8
2018-10-03T08:30:19.377Z,0.7
2018-10-03T08:32:19.235Z,1
2018-10-03T08:34:19.084Z,0.5
2018-10-03T08:36:19.224Z,0.7
2018-10-03T08:38:19.013Z,0.7
2018-10-03T08:40:19.347Z,0.6
2018-10-03T08:42:19.113Z,0.9
2018-10-03T08:44:18.884Z,1
2018-10-03T08:46:18.548Z,0.4
2018-10-03T08:48:19.349Z,1.1
2018-10-03T08:50:19.181Z,0.8
2018-10-03T08:52:18.970Z,0.6
2018-10-03T08:54:18.768Z,0.5
2018-10-03T08:56:18.565Z,1
2018-10-03T08:58:19.429Z,1.5
2018-10-03T09:00:19.453Z,1.5
2018-10-03T09:02:19.234Z,1.2
2018-10-03T09:04:18.979Z,0.5
2018-10-03T09:06:19.081Z,0.7
2018-10-03T09:08:18.862Z,0.5
2018-10-03T09:10:19.115Z,0.7
2018-10-03T09:12:18.875Z,0.8
2018-10-03T09:14:18.642Z,0.5
2018-10-03T09:16:18.732Z,1.1
2018-10-03T09:18:18.572Z,1.1
2018-10-03T09:20:19.345Z,0.6
2018-10-03T09:22:19.105Z,0.7
2018-10-03T09:24:18.863Z,0.5
2018-10-03T09:26:19.003Z,1.1
2018-10-03T09:28:18.801Z,1.1
2018-10-03T09:30:18.850Z,0.5
2018-10-03T09:32:18.621Z,1.5
2018-10-03T09:34:19.370Z,0.3
2018-10-03T09:36:19.494Z,0.8
2018-10-03T09:38:19.285Z,1.2
2018-10-03T09:40:18.522Z,0.1
2018-10-03T09:42:19.303Z,0.4
2018-10-03T09:44:19.080Z,0.8
2018-10-03T09:46:19.221Z,0.9
2018-10-03T09:48:19.002Z,0.6
2018-10-03T09:50:18.816Z,1.2
2018-10-03T09:52:18.609Z,0.6
2018-10-03T09:54:19.418Z,1.1
2018-10-03T09:56:18.566Z,0.6
2018-10-03T09:58:19.336Z,0.8
2018-10-03T10:00:19.162Z,1
2018-10-03T10:02:19.010Z,0.6
2018-10-03T10:04:18.802Z,1.2
2018-10-03T10:06:19.353Z,0.7
2018-10-03T10:08:19.107Z,1
2018-10-03T10:10:19.408Z,0.5
2018-10-03T10:12:19.335Z,0.9
2018-10-03T10:14:19.105Z,1
2018-10-03T10:16:19.182Z,1.1
2018-10-03T10:18:19.042Z,1.1
2018-10-03T10:20:18.811Z,0.9
2018-10-03T10:22:18.601Z,0.9
2018-10-03T10:24:19.395Z,0.5
2018-10-03T10:26:19.014Z,0.7
2018-10-03T10:28:18.784Z,1
2018-10-03T10:30:18.686Z,0.7
2018-10-03T10:32:19.606Z,0.8
2018-10-03T10:34:18.575Z,1.2
2018-10-03T10:36:19.173Z,0.6
2018-10-03T10:38:18.971Z,0.9
2018-10-03T10:40:19.381Z,0.8
2018-10-03T10:42:19.387Z,0.8
2018-10-03T10:44:19.168Z,1.8
2018-10-03T10:46:18.735Z,0.9
2018-10-03T10:48:19.518Z,0.6
2018-10-03T10:50:19.448Z,0.8
2018-10-03T10:52:19.445Z,0.7
2018-10-03T10:54:19.237Z,1.3
2018-10-03T10:56:19.338Z,1.4
2018-10-03T10:58:19.122Z,0.5
2018-10-03T11:00:18.900Z,0.5
2018-10-03T11:02:18.679Z,0.5
2018-10-03T11:04:19.458Z,0.8
2018-10-03T11:06:19.158Z,1.3
2018-10-03T11:08:19.218Z,0.6
2018-10-03T11:10:19.460Z,0.6
2018-10-03T11:12:19.224Z,0.4
2018-10-03T11:14:18.995Z,0.4
2018-10-03T11:16:18.543Z,0.7
2018-10-03T11:18:19.400Z,0.4
2018-10-03T11:20:19.219Z,0.7
2018-10-03T11:22:18.992Z,0.6
2018-10-03T11:24:18.958Z,0.8
2018-10-03T11:26:18.552Z,0.8
2018-10-03T11:28:19.318Z,1
2018-10-03T11:30:19.091Z,0.9
2018-10-03T11:32:18.897Z,0.8
2018-10-03T11:34:18.695Z,0.2
2018-10-03T11:36:18.890Z,1.2
2018-10-03T11:38:18.744Z,0.6
2018-10-03T11:40:19.292Z,0.7
2018-10-03T11:42:19.071Z,0.5
2018-10-03T11:44:18.848Z,0.3
2018-10-03T11:46:19.397Z,0.5
2018-10-03T11:48:19.158Z,0.7
2018-10-03T11:50:18.917Z,0.7
2018-10-03T11:52:18.677Z,0.7
2018-10-03T11:54:19.487Z,1
2018-10-03T11:56:18.661Z,0.6
2018-10-03T11:58:19.427Z,0.8
2018-10-03T12:00:19.241Z,0.5
2018-10-03T12:02:19.092Z,0.8
2018-10-03T12:04:18.858Z,0.5
2018-10-03T12:06:19.495Z,0.6
2018-10-03T12:08:19.267Z,1.1
2018-10-03T12:10:19.593Z,0.6
2018-10-03T12:12:19.142Z,0.3
2018-10-03T12:14:18.943Z,0.4
2018-10-03T12:16:19.383Z,0.7
2018-10-03T12:18:19.272Z,0.5
2018-10-03T12:20:19.072Z,0.5
2018-10-03T12:22:18.878Z,0.1
2018-10-03T12:24:18.675Z,0.4
2018-10-03T12:26:19.353Z,0.7
2018-10-03T12:28:19.178Z,0.2
2018-10-03T12:30:18.983Z,1
2018-10-03T12:32:18.770Z,0.6
2018-10-03T12:34:18.546Z,0.4
2018-10-03T12:36:19.119Z,0.3
2018-10-03T12:38:18.887Z,0.5
2018-10-03T12:40:19.316Z,0.3
2018-10-03T12:42:19.104Z,0.3
2018-10-03T12:44:18.899Z,0.3
2018-10-03T12:46:19.101Z,0.2
2018-10-03T12:48:18.902Z,0.6
2018-10-03T12:50:18.712Z,0.3
2018-10-03T12:52:19.512Z,0.4
2018-10-03T12:54:19.281Z,0.4
2018-10-03T12:56:19.337Z,0.4
2018-10-03T12:58:19.134Z,0.6
2018-10-03T13:00:18.962Z,0.2
2018-10-03T13:02:18.728Z,0.3
2018-10-03T13:04:18.506Z,0.5
2018-10-03T13:06:19.186Z,0.9
2018-10-03T13:08:18.979Z,0.3
2018-10-03T13:10:19.236Z,0.6
2018-10-03T13:12:18.057Z,0.4
2018-10-03T13:14:18.864Z,0.5
2018-10-03T13:16:18.976Z,0.7
2018-10-03T13:18:17.877Z,0.4
2018-10-03T13:20:18.656Z,0.3
2018-10-03T13:22:19.466Z,0.7
2018-10-03T13:24:19.282Z,0.4
2018-10-03T13:26:18.725Z,0.4
2018-10-03T13:28:19.501Z,0.6
2018-10-03T13:30:19.287Z,0.4
2018-10-03T13:32:19.075Z,0.5
2018-10-03T13:34:18.866Z,0.5
2018-10-03T13:36:19.091Z,0.2
2018-10-03T13:38:18.915Z,0.4
2018-10-03T13:40:19.221Z,0.8
2018-10-03T13:42:19.009Z,0.3
2018-10-03T13:44:18.770Z,0.4
2018-10-03T13:46:19.018Z,0.4
2018-10-03T13:48:18.807Z,0.4
2018-10-03T13:50:18.621Z,0.9
2018-10-03T13:52:18.472Z,1.2
2018-10-03T13:54:19.264Z,3.4
2018-10-03T13:56:18.826Z,0.3
2018-10-03T13:58:17.628Z,0.5
2018-10-03T14:00:18.435Z,0.5
2018-10-03T14:02:19.230Z,0.8
2018-10-03T14:04:18.047Z,0.3
2018-10-03T14:06:17.653Z,0.4
2018-10-03T14:08:19.439Z,0.3
2018-10-03T14:10:17.835Z,0.5
2018-10-03T14:12:17.634Z,0.6
2018-10-03T14:14:18.431Z,0.4
2018-10-03T14:16:18.525Z,0.4
2018-10-03T14:18:18.433Z,0.3
2018-10-03T14:20:18.368Z,0.3
2018-10-03T14:22:18.150Z,0.2
2018-10-03T14:24:17.959Z,0.8
2018-10-03T14:26:17.757Z,0.5
2018-10-03T14:28:18.547Z,0.3
2018-10-03T14:30:19.349Z,0.5
2018-10-03T14:32:18.127Z,0.3
2018-10-03T14:34:17.940Z,0.4
2018-10-03T14:36:18.500Z,0.6
2018-10-03T14:38:19.280Z,0.2
2018-10-03T14:40:18.540Z,0.3
2018-10-03T14:42:18.322Z,0.3
2018-10-03T14:44:18.127Z,0.4
2018-10-03T14:46:18.209Z,0.5
2018-10-03T14:48:19.016Z,0.3
2018-10-03T14:50:18.823Z,0.5
2018-10-03T14:52:18.785Z,0.4
2018-10-03T14:54:18.933Z,0.2
2018-10-03T14:56:19.166Z,0.7
2018-10-03T14:58:17.998Z,0.3
2018-10-03T15:00:19.028Z,0.4
2018-10-03T15:02:18.639Z,0.3
2018-10-03T15:04:18.434Z,0.4
2018-10-03T15:06:17.971Z,0.6
2018-10-03T15:08:18.760Z,0.7
2018-10-03T15:10:19.029Z,0.4
2018-10-03T15:12:17.823Z,0.3
2018-10-03T15:14:17.623Z,0.6
2018-10-03T15:16:17.695Z,0.4
2018-10-03T15:18:18.668Z,0.6
2018-10-03T15:20:19.502Z,0.2
2018-10-03T15:22:19.310Z,0.5
2018-10-03T15:24:19.138Z,0.3
2018-10-03T15:26:18.928Z,0.7
2018-10-03T15:28:17.689Z,0.7
2018-10-03T15:30:19.592Z,0.2
2018-10-03T15:32:18.612Z,0.3
2018-10-03T15:34:18.406Z,0.4
2018-10-03T15:36:18.884Z,0.8
2018-10-03T15:38:18.685Z,0.3
2018-10-03T15:40:18.981Z,0.7
2018-10-03T15:42:18.925Z,0.5
2018-10-03T15:44:18.895Z,0.6
2018-10-03T15:46:19.135Z,0.4
2018-10-03T15:48:18.962Z,0.6
2018-10-03T15:50:18.959Z,0.4
2018-10-03T15:52:18.749Z,0.6
2018-10-03T15:54:18.543Z,0.3
2018-10-03T15:56:18.943Z,0.2
2018-10-03T15:58:18.724Z,0.1
2018-10-03T16:00:19.509Z,0.3
2018-10-03T16:02:19.316Z,0.4
2018-10-03T16:04:19.094Z,0.4
2018-10-03T16:06:18.705Z,0.3
2018-10-03T16:08:19.480Z,0.7
2018-10-03T16:10:18.741Z,0.3
2018-10-03T16:12:18.574Z,0.3
2018-10-03T16:14:19.391Z,0.1
2018-10-03T16:16:19.014Z,0.4
2018-10-03T16:18:18.903Z,0.3
2018-10-03T16:20:18.712Z,0.4
2018-10-03T16:22:19.503Z,0.2
2018-10-03T16:24:19.305Z,0.5
2018-10-03T16:26:19.027Z,0.2
2018-10-03T16:28:19.000Z,0.3
2018-10-03T16:30:18.802Z,0.5
2018-10-03T16:32:18.644Z,0.4
2018-10-03T16:34:19.501Z,0.5
2018-10-03T16:36:18.627Z,0.3
2018-10-03T16:38:19.422Z,0.8
2018-10-03T16:40:18.705Z,0.6
2018-10-03T16:42:19.502Z,0.5
2018-10-03T16:44:19.284Z,0.5
2018-10-03T16:46:18.952Z,0.8
2018-10-03T16:48:18.760Z,0.4
2018-10-03T16:50:18.557Z,0.5
2018-10-03T16:52:19.326Z,0.2
2018-10-03T16:54:19.111Z,0.5
2018-10-03T16:56:19.333Z,0.2
2018-10-03T16:58:19.101Z,0.3
2018-10-03T17:00:18.887Z,0.7
2018-10-03T17:02:18.687Z,0.4
2018-10-03T17:04:19.503Z,1.1
2018-10-03T17:06:19.076Z,0.3
2018-10-03T17:08:18.884Z,0.4
2018-10-03T17:10:19.165Z,0.4
2018-10-03T17:12:18.955Z,0.1
2018-10-03T17:14:18.733Z,0.8
2018-10-03T17:16:19.170Z,0.7
2018-10-03T17:18:19.055Z,0.7
2018-10-03T17:20:18.843Z,0.4
2018-10-03T17:22:18.624Z,0.6
2018-10-03T17:24:19.412Z,0.7
2018-10-03T17:26:18.697Z,0.6
2018-10-03T17:28:19.490Z,0.3
2018-10-03T17:30:19.387Z,0.3
2018-10-03T17:32:19.175Z,0.3
2018-10-03T17:34:18.957Z,0.5
2018-10-03T17:36:19.396Z,0.5
2018-10-03T17:38:19.231Z,0.4
2018-10-03T17:40:19.534Z,0.5
2018-10-03T17:42:19.345Z,0.4
2018-10-03T17:44:19.141Z,0.7
2018-10-03T17:46:19.281Z,0.2
2018-10-03T17:48:19.047Z,0.3
2018-10-03T17:50:18.834Z,0.5
2018-10-03T17:52:18.617Z,0.5
2018-10-03T17:54:19.426Z,0.5
2018-10-03T17:56:18.565Z,0.8
2018-10-03T17:58:19.362Z,0.5
2018-10-03T18:00:19.177Z,0.5
2018-10-03T18:02:18.977Z,0.2
2018-10-03T18:04:18.765Z,0.6
2018-10-03T18:06:18.994Z,0.3
2018-10-03T18:08:18.790Z,0.4
2018-10-03T18:10:19.063Z,0.7
2018-10-03T18:12:18.846Z,0.6
2018-10-03T18:14:18.673Z,0.4
2018-10-03T18:16:19.520Z,0.4
2018-10-03T18:18:19.416Z,0.4
2018-10-03T18:20:19.194Z,0.5
2018-10-03T18:22:18.977Z,0.3
2018-10-03T18:24:18.759Z,0.4
2018-10-03T18:26:19.308Z,0.2
2018-10-03T18:28:19.091Z,0.2
2018-10-03T18:30:18.901Z,0.2
2018-10-03T18:32:18.677Z,0.5
2018-10-03T18:34:19.468Z,1.5
2018-10-03T18:36:18.704Z,1
2018-10-03T18:38:19.490Z,0.5
2018-10-03T18:40:18.768Z,0.4
2018-10-03T18:42:18.593Z,0.6
2018-10-03T18:44:19.376Z,0.4
2018-10-03T18:46:19.211Z,0.3
2018-10-03T18:48:18.960Z,1
2018-10-03T18:50:18.808Z,0.4
2018-10-03T18:52:18.679Z,0.2
2018-10-03T18:54:18.695Z,0.2
2018-10-03T18:56:19.080Z,0.5
2018-10-03T18:58:18.863Z,0.8
2018-10-03T19:00:18.634Z,0.6
2018-10-03T19:02:19.419Z,0.6
2018-10-03T19:04:19.196Z,0.7
2018-10-03T19:06:19.383Z,0.4
2018-10-03T19:08:19.204Z,0.9
2018-10-03T19:10:19.481Z,0.4
2018-10-03T19:12:19.425Z,0.6
2018-10-03T19:14:18.507Z,0.6
2018-10-03T19:16:19.119Z,0.5
2018-10-03T19:18:19.058Z,0.5
2018-10-03T19:20:19.072Z,0.3
2018-10-03T19:22:18.883Z,0.4
2018-10-03T19:24:18.652Z,0.8
2018-10-03T19:26:19.163Z,0.5
2018-10-03T19:28:19.277Z,0.9
2018-10-03T19:30:19.090Z,0.7
2018-10-03T19:32:18.767Z,0.6
2018-10-03T19:34:18.527Z,0.4
2018-10-03T19:36:18.818Z,0.6
2018-10-03T19:38:18.578Z,0.6
2018-10-03T19:40:18.834Z,0.5
2018-10-03T19:42:18.735Z,0.5
2018-10-03T19:44:18.864Z,0.5
2018-10-03T19:46:19.405Z,0.7
2018-10-03T19:48:19.336Z,0.4
2018-10-03T19:50:18.593Z,0.8
2018-10-03T19:52:19.402Z,0.5
2018-10-03T19:54:19.181Z,0.7
2018-10-03T19:56:19.348Z,0.3
2018-10-03T19:58:19.211Z,0.4
2018-10-03T20:00:19.022Z,0.3
2018-10-03T20:02:19.103Z,0.4
2018-10-03T20:04:18.880Z,0.9
2018-10-03T20:06:18.665Z,0.3
2018-10-03T20:08:19.440Z,0.4
2018-10-03T20:10:18.727Z,0.4
2018-10-03T20:12:19.490Z,0.6
2018-10-03T20:14:19.310Z,0.9
2018-10-03T20:16:18.848Z,0.8
2018-10-03T20:18:18.685Z,0.3
2018-10-03T20:20:19.459Z,0.8
2018-10-03T20:22:19.240Z,0.3
2018-10-03T20:24:19.027Z,0.5
2018-10-03T20:26:19.237Z,0.3
2018-10-03T20:28:19.006Z,0.7
2018-10-03T20:30:18.786Z,0.6
2018-10-03T20:32:18.593Z,0.6
2018-10-03T20:34:19.451Z,0.5
2018-10-03T20:36:19.275Z,1.2
2018-10-03T20:38:19.030Z,0.6
2018-10-03T20:40:19.303Z,0.6
2018-10-03T20:42:19.076Z,0.4
2018-10-03T20:44:18.890Z,1
2018-10-03T20:46:19.000Z,0.9
2018-10-03T20:48:18.871Z,0.5
2018-10-03T20:50:18.926Z,0.5
2018-10-03T20:52:18.699Z,0.6
2018-10-03T20:54:19.553Z,0.8
2018-10-03T20:56:19.272Z,1
2018-10-03T20:58:19.074Z,0.9
2018-10-03T21:00:18.893Z,1.3
2018-10-03T21:02:18.704Z,0.2
2018-10-03T21:04:19.494Z,0.3
2018-10-03T21:06:18.584Z,0.8
2018-10-03T21:08:19.363Z,0.7
2018-10-03T21:10:18.655Z,1.2
2018-10-03T21:12:19.433Z,0.4
2018-10-03T21:14:19.224Z,0.7
2018-10-03T21:16:18.884Z,0.4
2018-10-03T21:18:18.726Z,0.3
2018-10-03T21:20:19.571Z,0.4
2018-10-03T21:22:19.323Z,0.7
2018-10-03T21:24:19.084Z,0.5
2018-10-03T21:26:18.964Z,0.5
2018-10-03T21:28:18.745Z,0.6
2018-10-03T21:30:18.541Z,0.6
2018-10-03T21:32:19.370Z,0.7
2018-10-03T21:34:19.234Z,0.4
2018-10-03T21:36:19.361Z,0.8
2018-10-03T21:38:19.120Z,0.7
2018-10-03T21:40:19.388Z,0.5
2018-10-03T21:42:19.147Z,0.5
2018-10-03T21:44:18.929Z,0.6
2018-10-03T21:46:18.547Z,0.6
2018-10-03T21:48:19.317Z,0.5
2018-10-03T21:50:19.113Z,0.5
2018-10-03T21:52:18.888Z,1.1
2018-10-03T21:54:18.662Z,0.6
2018-10-03T21:56:19.212Z,0.4
2018-10-03T21:58:18.979Z,0.3
2018-10-03T22:00:18.756Z,0.7
2018-10-03T22:02:18.547Z,0.5
2018-10-03T22:04:19.330Z,0.5
2018-10-03T22:06:19.433Z,0.5
2018-10-03T22:08:19.225Z,1.1
2018-10-03T22:10:19.485Z,0.5
2018-10-03T22:12:19.254Z,0.7
2018-10-03T22:14:19.047Z,0.4
2018-10-03T22:16:18.754Z,0.5
2018-10-03T22:18:18.597Z,0.5
2018-10-03T22:20:19.397Z,0.4
2018-10-03T22:22:19.174Z,0.5
2018-10-03T22:24:18.960Z,0.9
2018-10-03T22:26:18.868Z,0.5
2018-10-03T22:28:18.667Z,1
2018-10-03T22:30:19.473Z,0.4
2018-10-03T22:32:19.249Z,1.1
2018-10-03T22:34:19.036Z,0.5
2018-10-03T22:36:18.570Z,0.3
2018-10-03T22:38:19.364Z,0.5
2018-10-03T22:40:18.645Z,0.8
2018-10-03T22:42:19.417Z,0.4
2018-10-03T22:44:19.184Z,0.6
2018-10-03T22:46:18.533Z,0.4
2018-10-03T22:48:19.321Z,0.6
2018-10-03T22:50:19.105Z,0.6
2018-10-03T22:52:18.887Z,0.5
2018-10-03T22:54:18.665Z,0.8
2018-10-03T22:56:18.729Z,0.6
2018-10-03T22:58:18.510Z,0.3
2018-10-03T23:00:19.338Z,0.5
2018-10-03T23:02:19.115Z,0.5
2018-10-03T23:04:18.914Z,0.5
2018-10-03T23:06:19.513Z,0.8
2018-10-03T23:08:19.278Z,0.6
2018-10-03T23:10:18.561Z,0.5
2018-10-03T23:12:19.317Z,0.5
2018-10-03T23:14:19.105Z,0.6
2018-10-03T23:16:18.692Z,0.3
2018-10-03T23:18:18.510Z,0.7
2018-10-03T23:20:19.293Z,1
2018-10-03T23:22:19.063Z,0.7
2018-10-03T23:24:18.848Z,0.5
2018-10-03T23:26:19.450Z,0.5
2018-10-03T23:28:19.237Z,0.3
2018-10-03T23:30:19.041Z,0.5
2018-10-03T23:32:18.760Z,0.5
2018-10-03T23:34:18.527Z,0.7
2018-10-03T23:36:18.687Z,1
2018-10-03T23:38:19.490Z,0.4
2018-10-03T23:40:18.769Z,0.3
2018-10-03T23:42:18.561Z,0.7
2018-10-03T23:44:19.351Z,0.3
2018-10-03T23:46:18.912Z,0.5
2018-10-03T23:48:18.666Z,0.4
2018-10-03T23:50:19.446Z,0.4
2018-10-03T23:52:18.686Z,0.3
2018-10-03T23:54:19.455Z,0.8
2018-10-03T23:56:19.045Z,0.5
2018-10-03T23:58:18.828Z,0.4
